Time;durP1;ratioP1;P1;durP2;ratioP2;P2;SDS_P1;SDS_P2;PMS_P1;PMS_P2;Temp;Humidity;BMP_temperature;BMP_pressure;BME280_temperature;BME280_humidity;BME280_pressure;Samples;Min_cycle;Max_cycle;Signal;HPM_P1;HPM_P2
2023/04/05 00:01:29;;;;;;;9.83;4.67;;;-0.30;68.80;;;;;;5045660;28;20134;-77
2023/04/05 00:03:56;;;;;;;9.20;5.53;;;-0.40;68.60;;;;;;5059400;28;20071;-77
2023/04/05 00:06:25;;;;;;;10.30;5.37;;;-0.40;68.70;;;;;;5051670;28;20074;-76
2023/04/05 00:08:54;;;;;;;11.03;5.53;;;-0.50;68.70;;;;;;5057434;28;20040;-77
2023/04/05 00:11:29;;;;;;;12.90;6.13;;;-0.50;68.90;;;;;;5083710;28;20195;-76
2023/04/05 00:13:55;;;;;;;13.63;5.93;;;-0.50;69.10;;;;;;5094291;28;20489;-77
2023/04/05 00:16:22;;;;;;;14.23;6.20;;;-0.40;69.30;;;;;;5065946;28;20039;-76
2023/04/05 00:18:50;;;;;;;13.23;6.50;;;-0.40;69.40;;;;;;5051854;28;20048;-76
2023/04/05 00:21:20;;;;;;;12.13;6.00;;;-0.40;69.70;;;;;;5088733;28;20054;-76
2023/04/05 00:23:54;;;;;;;10.40;6.27;;;-0.40;69.40;;;;;;5056134;28;20522;-76
2023/04/05 00:26:20;;;;;;;10.93;5.57;;;-0.40;69.20;;;;;;5070861;28;20070;-76
2023/04/05 00:28:47;;;;;;;13.87;5.97;;;-0.40;69.10;;;;;;5073741;28;20079;-76
2023/04/05 00:31:13;;;;;;;12.03;6.03;;;-0.50;69.10;;;;;;5078570;28;20370;-77
2023/04/05 00:33:39;;;;;;;9.63;5.40;;;-0.50;69.30;;;;;;5057633;28;20079;-77
2023/04/05 00:36:18;;;;;;;10.33;5.40;;;-0.50;69.20;;;;;;5076453;28;20100;-76
2023/04/05 00:38:45;;;;;;;13.03;6.00;;;-0.50;69.20;;;;;;5073807;28;20377;-76
2023/04/05 00:41:12;;;;;;;11.70;6.20;;;-0.50;69.20;;;;;;5084628;28;20130;-77
2023/04/05 00:43:38;;;;;;;11.17;5.97;;;-0.50;69.30;;;;;;5096639;28;20054;-77
2023/04/05 00:46:05;;;;;;;13.57;6.27;;;-0.50;69.30;;;;;;5111573;28;20035;-77
2023/04/05 00:48:31;;;;;;;10.17;5.70;;;-0.50;69.30;;;;;;5065383;28;20565;-77
2023/04/05 00:50:58;;;;;;;13.23;5.00;;;-0.50;69.30;;;;;;5076801;28;20028;-77
2023/04/05 00:53:26;;;;;;;11.27;5.50;;;-0.60;69.20;;;;;;5083659;28;20036;-77
2023/04/05 00:55:52;;;;;;;11.20;5.60;;;-0.60;69.20;;;;;;5067503;28;20462;-77
2023/04/05 00:58:20;;;;;;;11.90;5.33;;;-0.70;69.30;;;;;;5077744;28;20096;-77
2023/04/05 01:00:55;;;;;;;11.40;5.43;;;-0.70;69.30;;;;;;5094964;28;20128;-77
2023/04/05 01:03:24;;;;;;;10.63;5.43;;;-0.70;69.30;;;;;;5082431;28;20066;-77
2023/04/05 01:05:59;;;;;;;11.60;5.50;;;-0.80;69.50;;;;;;5071715;28;20039;-77
2023/04/05 01:09:09;;;;;;;11.00;5.67;;;-0.80;69.50;;;;;;5043039;28;20055;-77
2023/04/05 01:11:38;;;;;;;10.03;5.90;;;-0.90;69.50;;;;;;4977611;28;20057;-77
2023/04/05 01:14:03;;;;;;;8.97;5.30;;;-1.00;69.60;;;;;;4971678;28;20050;-77
2023/04/05 01:16:29;;;;;;;8.60;5.13;;;-1.00;69.50;;;;;;4995775;28;20120;-76
2023/04/05 01:18:55;;;;;;;12.13;5.70;;;-1.00;69.50;;;;;;5069796;28;20050;-77
2023/04/05 01:21:33;;;;;;;12.47;6.03;;;-1.10;69.50;;;;;;5094003;28;20116;-77
2023/04/05 01:24:24;;;;;;;10.07;5.73;;;-1.10;69.60;;;;;;5092498;28;20052;-77
2023/04/05 01:27:29;;;;;;;11.30;5.95;;;-1.10;69.50;;;;;;5075411;28;20052;-76
2023/04/05 01:30:02;;;;;;;11.97;5.93;;;-1.10;69.70;;;;;;5021236;28;20059;-77
2023/04/05 01:32:53;;;;;;;10.77;5.90;;;-1.20;69.60;;;;;;5077566;28;20048;-77
2023/04/05 01:35:43;;;;;;;8.82;4.53;;;-1.30;69.80;;;;;;5064811;28;20047;-76
2023/04/05 01:38:12;;;;;;;12.43;5.70;;;-1.30;69.80;;;;;;5060461;28;20075;-77
2023/04/05 01:40:41;;;;;;;8.90;5.40;;;-1.30;69.80;;;;;;5063400;28;20665;-77
2023/04/05 01:43:17;;;;;;;12.43;5.90;;;-1.30;69.80;;;;;;5070835;28;20491;-77
2023/04/05 01:45:44;;;;;;;12.30;6.53;;;-1.40;70.00;;;;;;5076119;28;20104;-77
2023/04/05 01:48:11;;;;;;;11.27;6.40;;;-1.40;70.10;;;;;;5076913;28;20431;-77
2023/04/05 01:50:36;;;;;;;11.23;6.07;;;-1.40;70.10;;;;;;5047627;28;20044;-77
2023/04/05 01:53:02;;;;;;;13.63;6.20;;;-1.50;70.10;;;;;;5051891;28;20048;-77
2023/04/05 01:55:28;;;;;;;9.97;5.73;;;-1.50;70.20;;;;;;5038670;28;20498;-77
2023/04/05 01:57:55;;;;;;;11.60;5.80;;;-1.50;70.30;;;;;;5038723;28;20040;-77
2023/04/05 02:00:21;;;;;;;9.30;5.43;;;-1.50;70.10;;;;;;5042874;28;20066;-77
2023/04/05 02:02:47;;;;;;;10.27;5.23;;;-1.50;70.20;;;;;;5058534;28;20075;-76
2023/04/05 02:05:13;;;;;;;10.20;5.13;;;-1.50;70.30;;;;;;5059927;28;20454;-77
2023/04/05 02:07:38;;;;;;;7.90;5.27;;;-1.60;70.20;;;;;;5059696;28;20130;-77
2023/04/05 02:10:05;;;;;;;11.70;6.50;;;-1.60;70.30;;;;;;5059019;28;20517;-76
2023/04/05 02:12:31;;;;;;;10.47;5.97;;;-1.60;70.40;;;;;;5062149;28;20129;-77
2023/04/05 02:14:57;;;;;;;11.17;5.43;;;-1.60;70.40;;;;;;5063063;28;20378;-77
2023/04/05 02:17:23;;;;;;;10.23;5.67;;;-1.60;70.50;;;;;;5023059;28;20044;-77
2023/04/05 02:19:51;;;;;;;13.57;6.40;;;-1.70;70.40;;;;;;5065619;28;20044;-77
2023/04/05 02:22:18;;;;;;;10.40;5.37;;;-1.70;70.40;;;;;;5075298;28;20041;-77
2023/04/05 02:24:44;;;;;;;12.57;5.30;;;-1.70;70.40;;;;;;5076087;28;20546;-77
2023/04/05 02:27:10;;;;;;;13.37;6.17;;;-1.70;70.50;;;;;;5042161;28;20054;-77
2023/04/05 02:29:36;;;;;;;11.53;6.67;;;-1.80;70.40;;;;;;5060924;28;20032;-77
2023/04/05 02:32:01;;;;;;;13.53;6.33;;;-1.80;70.50;;;;;;5090641;28;20097;-77
2023/04/05 02:34:27;;;;;;;10.33;5.83;;;-1.80;70.50;;;;;;5064151;28;20331;-77
2023/04/05 02:36:53;;;;;;;12.13;6.17;;;-1.90;70.60;;;;;;5055744;28;20039;-77
2023/04/05 02:39:19;;;;;;;14.83;6.97;;;-1.90;70.60;;;;;;5074694;28;20556;-77
2023/04/05 02:41:45;;;;;;;11.13;6.57;;;-1.90;70.60;;;;;;5057371;28;20121;-77
2023/04/05 02:44:12;;;;;;;13.23;6.73;;;-1.90;70.60;;;;;;5072461;28;20127;-77
2023/04/05 02:46:37;;;;;;;11.33;6.50;;;-2.00;70.60;;;;;;5042652;28;20076;-77
2023/04/05 02:49:03;;;;;;;15.10;7.20;;;-2.00;70.70;;;;;;5088294;28;20448;-77
2023/04/05 02:51:29;;;;;;;13.53;7.37;;;-2.10;70.60;;;;;;5078678;28;20478;-77
2023/04/05 02:53:55;;;;;;;15.40;7.17;;;-2.10;70.50;;;;;;5074149;28;20389;-77
2023/04/05 02:56:20;;;;;;;10.77;6.87;;;-2.10;70.70;;;;;;5045699;28;20054;-76
2023/04/05 02:58:48;;;;;;;16.10;7.63;;;-2.10;70.70;;;;;;5070928;28;20044;-77
2023/04/05 03:01:16;;;;;;;15.17;6.97;;;-2.10;70.70;;;;;;5072770;28;20115;-77
2023/04/05 03:03:42;;;;;;;10.83;6.93;;;-2.10;70.80;;;;;;5086009;28;20096;-77
2023/04/05 03:06:12;;;;;;;12.90;7.33;;;-2.10;70.90;;;;;;5045789;28;20048;-76
2023/04/05 03:08:47;;;;;;;13.13;6.83;;;-2.10;70.80;;;;;;5052517;28;20066;-77
2023/04/05 03:11:13;;;;;;;13.17;7.07;;;-2.20;70.90;;;;;;5072126;28;20127;-77
2023/04/05 03:13:39;;;;;;;9.63;6.73;;;-2.20;70.90;;;;;;5090644;28;20046;-77
2023/04/05 03:16:06;;;;;;;15.77;7.43;;;-2.20;70.80;;;;;;5076927;28;20359;-76
2023/04/05 03:18:32;;;;;;;14.23;7.07;;;-2.20;70.90;;;;;;5051169;28;20048;-77
2023/04/05 03:20:57;;;;;;;13.00;8.07;;;-2.20;70.90;;;;;;5048531;28;20043;-77
2023/04/05 03:23:28;;;;;;;16.40;9.30;;;-2.20;70.90;;;;;;5042694;28;20044;-77
2023/04/05 03:25:58;;;;;;;15.35;7.95;;;-2.20;70.90;;;;;;5087481;28;20039;-78
2023/04/05 03:28:24;;;;;;;21.50;11.37;;;-2.20;71.00;;;;;;5058325;28;20078;-78
2023/04/05 03:30:50;;;;;;;21.10;11.40;;;-2.10;71.20;;;;;;5074458;28;20047;-77
2023/04/05 03:33:17;;;;;;;23.73;11.40;;;-2.10;71.30;;;;;;5090252;28;20040;-77
2023/04/05 03:35:42;;;;;;;24.27;12.87;;;-2.10;71.30;;;;;;5054132;28;20043;-77
2023/04/05 03:38:08;;;;;;;22.40;13.07;;;-2.00;71.30;;;;;;5057717;28;20157;-78
2023/04/05 03:40:34;;;;;;;26.47;13.47;;;-1.90;71.20;;;;;;5049692;28;20075;-77
2023/04/05 03:43:00;;;;;;;23.40;12.83;;;-1.90;71.20;;;;;;5074170;28;20059;-78
2023/04/05 03:45:26;;;;;;;27.87;14.23;;;-1.90;71.20;;;;;;5074242;28;20388;-78
2023/04/05 03:47:53;;;;;;;23.80;12.60;;;-1.90;71.30;;;;;;5036595;28;20047;-77
2023/04/05 03:50:19;;;;;;;23.60;12.17;;;-1.90;71.60;;;;;;5087258;28;20390;-78
2023/04/05 03:52:45;;;;;;;21.63;12.53;;;-1.90;71.60;;;;;;5073471;28;20063;-78
2023/04/05 03:55:12;;;;;;;21.90;12.30;;;-1.90;71.60;;;;;;5055024;28;20048;-77
2023/04/05 03:57:39;;;;;;;20.80;12.03;;;-1.90;71.50;;;;;;5058012;28;20486;-78
2023/04/05 04:00:16;;;;;;;22.43;12.40;;;-1.90;71.50;;;;;;5074109;28;20050;-77
2023/04/05 04:02:46;;;;;;;21.37;11.87;;;-2.00;71.40;;;;;;5039903;28;20052;-78
2023/04/05 04:05:14;;;;;;;22.58;10.95;;;-2.10;71.40;;;;;;5067376;28;20093;-78
2023/04/05 04:07:43;;;;;;;27.43;14.00;;;-2.10;71.50;;;;;;5074660;28;20071;-78
2023/04/05 04:10:13;;;;;;;25.40;13.47;;;-2.10;71.40;;;;;;5074406;28;20047;-78
2023/04/05 04:12:39;;;;;;;26.83;13.60;;;-2.10;71.50;;;;;;5073272;28;20040;-77
2023/04/05 04:15:05;;;;;;;26.53;14.23;;;-2.10;71.50;;;;;;5068750;28;20051;-78
2023/04/05 04:17:33;;;;;;;27.03;15.20;;;-2.00;71.60;;;;;;5047815;28;20054;-78
2023/04/05 04:19:58;;;;;;;27.63;15.33;;;-2.00;71.70;;;;;;5070966;28;20063;-78
2023/04/05 04:22:37;;;;;;;29.37;15.13;;;-1.90;71.70;;;;;;5072102;28;20036;-78
2023/04/05 04:25:04;;;;;;;26.10;14.47;;;-1.90;71.70;;;;;;5077516;28;20063;-78
2023/04/05 04:27:31;;;;;;;22.67;12.67;;;-1.90;71.70;;;;;;5057336;28;20439;-78
2023/04/05 04:30:03;;;;;;;23.47;14.97;;;-1.90;71.80;;;;;;5048380;28;20077;-78
2023/04/05 04:35:17;;;;;;;28.17;14.53;;;-2.10;71.80;;;;;;5083274;28;20109;-78
2023/04/05 04:37:52;;;;;;;26.57;13.97;;;-2.10;71.80;;;;;;5072505;28;20079;-77
2023/04/05 04:40:18;;;;;;;25.17;13.67;;;-2.10;71.70;;;;;;5090881;28;20052;-78
2023/04/05 04:42:47;;;;;;;30.97;14.57;;;-2.10;71.70;;;;;;5088312;28;20048;-78
2023/04/05 04:45:18;;;;;;;28.77;14.53;;;-2.10;71.60;;;;;;5073641;28;20044;-78
2023/04/05 04:47:48;;;;;;;27.05;14.55;;;-2.20;71.80;;;;;;5073727;28;20173;-78
2023/04/05 04:50:15;;;;;;;23.37;14.17;;;-2.20;71.80;;;;;;5094332;28;20494;-78
2023/04/05 04:52:41;;;;;;;29.57;15.33;;;-2.20;71.80;;;;;;5075689;28;20423;-78
2023/04/05 04:55:08;;;;;;;27.97;16.00;;;-2.20;72.00;;;;;;5070935;28;20043;-78
2023/04/05 04:57:34;;;;;;;30.57;16.27;;;-2.20;72.00;;;;;;5057858;28;20468;-77
2023/04/05 05:00:00;;;;;;;29.53;15.97;;;-2.20;72.10;;;;;;5082446;28;20120;-78
2023/04/05 05:02:27;;;;;;;27.83;15.53;;;-2.20;72.20;;;;;;5075887;28;20458;-78
2023/04/05 05:04:53;;;;;;;29.40;16.40;;;-2.20;72.50;;;;;;5063594;28;20507;-77
2023/04/05 05:07:19;;;;;;;31.30;17.67;;;-2.20;72.20;;;;;;5055244;28;20044;-78
2023/04/05 05:09:46;;;;;;;30.57;17.13;;;-2.20;72.10;;;;;;5078618;28;20051;-78
2023/04/05 05:12:12;;;;;;;33.43;16.90;;;-2.20;72.20;;;;;;5059438;28;20039;-79
2023/04/05 05:14:38;;;;;;;29.93;16.37;;;-2.20;72.20;;;;;;5074209;28;20355;-78
2023/04/05 05:17:05;;;;;;;29.93;16.43;;;-2.10;72.20;;;;;;5034102;27;20465;-78
2023/04/05 05:19:31;;;;;;;26.20;15.23;;;-2.10;72.30;;;;;;5092763;28;20043;-78
2023/04/05 05:21:57;;;;;;;30.20;15.47;;;-2.10;72.10;;;;;;5076061;28;20104;-78
2023/04/05 05:24:23;;;;;;;25.60;15.43;;;-2.20;72.10;;;;;;5074529;28;20054;-79
2023/04/05 05:26:49;;;;;;;30.57;16.80;;;-2.10;72.20;;;;;;5044645;28;20472;-78
2023/04/05 05:29:15;;;;;;;26.30;15.83;;;-2.10;72.50;;;;;;5075590;28;20100;-78
2023/04/05 05:31:41;;;;;;;25.83;16.03;;;-2.10;72.50;;;;;;5060602;28;20035;-78
2023/04/05 05:34:07;;;;;;;26.93;15.30;;;-2.10;72.50;;;;;;5062152;28;20086;-78
2023/04/05 05:36:34;;;;;;;31.00;16.93;;;-2.10;72.40;;;;;;5042343;28;20127;-78
2023/04/05 05:39:00;;;;;;;29.50;17.37;;;-2.00;72.50;;;;;;5069728;28;20105;-78
2023/04/05 05:41:26;;;;;;;29.93;16.63;;;-1.90;72.60;;;;;;5076504;28;20078;-78
2023/04/05 05:43:52;;;;;;;27.00;17.40;;;-1.80;72.70;;;;;;5075565;28;20058;-78
2023/04/05 05:46:19;;;;;;;25.70;17.00;;;-1.80;72.90;;;;;;5064545;28;20131;-78
2023/04/05 05:48:45;;;;;;;30.60;18.83;;;-1.60;73.10;;;;;;5070747;28;20035;-78
2023/04/05 05:51:11;;;;;;;28.40;17.80;;;-1.50;73.40;;;;;;5062745;28;20043;-78
2023/04/05 05:53:37;;;;;;;34.07;18.97;;;-1.40;73.20;;;;;;5092093;28;20046;-78
2023/04/05 05:56:04;;;;;;;34.90;18.93;;;-1.30;73.10;;;;;;5093357;28;20048;-78
2023/04/05 05:58:31;;;;;;;33.40;19.30;;;-1.10;73.20;;;;;;5062661;28;20055;-78
2023/04/05 06:00:57;;;;;;;30.27;19.13;;;-1.00;73.20;;;;;;5059167;28;20043;-78
2023/04/05 06:03:24;;;;;;;28.57;18.37;;;-0.70;73.60;;;;;;5074823;28;20059;-78
2023/04/05 06:06:02;;;;;;;30.13;19.13;;;-0.60;73.60;;;;;;5039900;28;20654;-78
2023/04/05 06:08:27;;;;;;;32.70;18.77;;;-0.30;73.50;;;;;;5063099;28;20387;-77
2023/04/05 06:10:53;;;;;;;32.70;21.07;;;-0.10;73.80;;;;;;5075731;28;20035;-78
2023/04/05 06:13:19;;;;;;;32.77;21.47;;;0.00;74.10;;;;;;5091983;28;20059;-78
2023/04/05 06:15:47;;;;;;;31.90;18.67;;;0.40;73.80;;;;;;5056415;28;20378;-77
2023/04/05 06:18:13;;;;;;;32.83;19.67;;;0.60;73.80;;;;;;5038879;28;20043;-78
2023/04/05 06:20:39;;;;;;;33.77;18.87;;;0.90;73.40;;;;;;5089610;28;20106;-78
2023/04/05 06:23:07;;;;;;;31.10;18.57;;;1.10;72.90;;;;;;5056580;28;20044;-77
2023/04/05 06:25:33;;;;;;;25.87;16.10;;;1.40;72.80;;;;;;5087419;28;20043;-77
2023/04/05 06:27:58;;;;;;;25.53;17.23;;;1.40;72.70;;;;;;5037214;28;20050;-78
2023/04/05 06:30:24;;;;;;;26.50;15.33;;;1.50;72.50;;;;;;5069133;28;20071;-75
2023/04/05 06:32:53;;;;;;;26.47;14.90;;;1.50;72.40;;;;;;5056413;28;20080;-76
2023/04/05 06:35:23;;;;;;;25.83;14.73;;;1.50;72.20;;;;;;5071721;28;20366;-76
2023/04/05 06:37:49;;;;;;;22.27;14.93;;;1.50;72.50;;;;;;5048528;28;20079;-76
2023/04/05 06:40:15;;;;;;;22.33;14.43;;;1.50;72.40;;;;;;5081998;28;20104;-76
2023/04/05 06:42:41;;;;;;;23.70;14.73;;;1.70;72.70;;;;;;5089600;28;20031;-76
2023/04/05 06:45:07;;;;;;;25.23;14.23;;;1.80;72.80;;;;;;5087759;28;20378;-76
2023/04/05 06:47:39;;;;;;;21.63;14.33;;;1.90;72.90;;;;;;5052283;28;20347;-75
2023/04/05 06:50:07;;;;;;;18.40;13.87;;;2.10;72.60;;;;;;5073934;28;20035;-76
2023/04/05 06:52:34;;;;;;;23.83;13.67;;;2.20;72.80;;;;;;5079425;28;20478;-76
2023/04/05 06:55:00;;;;;;;22.40;13.27;;;2.40;72.90;;;;;;5089274;28;20063;-76
2023/04/05 06:57:26;;;;;;;21.63;14.30;;;2.50;72.70;;;;;;5070301;28;20521;-76
2023/04/05 06:59:52;;;;;;;22.47;13.87;;;2.70;72.40;;;;;;5069370;28;20028;-76
2023/04/05 07:02:18;;;;;;;21.70;12.90;;;2.80;72.40;;;;;;5053326;28;20042;-76
2023/04/05 07:04:45;;;;;;;22.93;14.43;;;2.90;71.90;;;;;;5061077;28;20052;-76
2023/04/05 07:07:11;;;;;;;28.47;14.87;;;3.10;71.50;;;;;;5044296;28;20040;-76
2023/04/05 07:09:38;;;;;;;22.50;14.53;;;3.50;71.00;;;;;;5069975;28;20358;-76
2023/04/05 07:12:05;;;;;;;23.00;14.67;;;3.70;69.90;;;;;;5063899;28;20059;-76
2023/04/05 07:14:32;;;;;;;20.87;14.73;;;3.70;68.80;;;;;;5061091;28;20051;-75
2023/04/05 07:16:58;;;;;;;20.60;15.00;;;3.60;68.70;;;;;;5030260;28;20284;-76
2023/04/05 07:19:23;;;;;;;27.17;14.70;;;3.50;68.70;;;;;;5060507;28;20056;-75
2023/04/05 07:21:49;;;;;;;25.17;14.10;;;3.50;68.90;;;;;;5078126;28;20490;-76
2023/04/05 07:24:15;;;;;;;22.37;14.57;;;3.60;68.60;;;;;;5077825;28;20471;-76
2023/04/05 07:26:41;;;;;;;21.63;14.37;;;3.60;68.00;;;;;;5052124;28;20050;-76
2023/04/05 07:29:08;;;;;;;23.83;15.23;;;3.50;68.40;;;;;;5059744;28;20059;-76
2023/04/05 07:31:34;;;;;;;25.60;16.17;;;3.50;68.50;;;;;;5065301;28;20114;-76
2023/04/05 07:34:00;;;;;;;23.97;15.53;;;3.50;69.00;;;;;;5073344;28;20051;-76
2023/04/05 07:36:27;;;;;;;26.47;16.00;;;3.50;68.70;;;;;;5046659;28;20039;-76
2023/04/05 07:38:53;;;;;;;30.87;16.80;;;3.50;68.40;;;;;;5071273;28;20058;-75
2023/04/05 07:41:19;;;;;;;27.23;15.87;;;3.60;68.50;;;;;;5050643;28;20488;-75
2023/04/05 07:43:45;;;;;;;24.17;15.53;;;3.80;68.50;;;;;;5050588;28;20040;-76
2023/04/05 07:46:11;;;;;;;24.20;16.00;;;3.90;68.50;;;;;;5021785;28;20043;-75
2023/04/05 07:48:37;;;;;;;22.67;15.67;;;4.10;68.40;;;;;;5060934;28;20050;-76
2023/04/05 07:51:07;;;;;;;22.33;16.70;;;4.50;67.50;;;;;;5056145;28;20043;-76
2023/04/05 07:53:33;;;;;;;25.93;16.37;;;5.10;67.20;;;;;;5090061;28;20134;-77
2023/04/05 07:56:04;;;;;;;21.33;14.70;;;5.80;66.50;;;;;;5071437;28;20039;-76
2023/04/05 07:58:31;;;;;;;18.40;14.07;;;6.00;65.10;;;;;;5052507;28;20047;-76
2023/04/05 08:01:00;;;;;;;21.57;14.47;;;5.90;65.30;;;;;;5052767;28;20104;-76
2023/04/05 08:03:27;;;;;;;17.83;14.47;;;5.70;65.30;;;;;;5098572;28;20043;-76
2023/04/05 08:05:52;;;;;;;20.07;13.97;;;5.90;65.30;;;;;;5088282;28;20043;-77
2023/04/05 08:08:18;;;;;;;26.53;13.67;;;6.40;65.10;;;;;;5015930;28;20040;-77
2023/04/05 08:10:44;;;;;;;19.67;13.13;;;6.80;64.40;;;;;;5069394;28;20046;-76
2023/04/05 08:13:09;;;;;;;19.97;12.83;;;6.80;64.10;;;;;;5066158;28;20048;-76
2023/04/05 08:15:35;;;;;;;18.33;11.47;;;6.50;63.70;;;;;;5065995;28;20067;-77
2023/04/05 08:18:01;;;;;;;18.93;12.10;;;6.50;63.50;;;;;;5071027;28;20552;-76
2023/04/05 08:20:27;;;;;;;17.10;11.87;;;7.00;63.80;;;;;;5065340;28;20044;-76
2023/04/05 08:22:52;;;;;;;16.53;11.53;;;7.20;63.20;;;;;;5050161;28;20447;-76
2023/04/05 08:25:18;;;;;;;19.00;11.43;;;7.00;62.90;;;;;;5046577;28;20486;-76
2023/04/05 08:27:44;;;;;;;20.17;11.97;;;7.00;63.50;;;;;;5039690;28;20059;-76
2023/04/05 08:30:10;;;;;;;18.33;10.77;;;7.20;63.70;;;;;;5031647;28;20051;-77
2023/04/05 08:32:36;;;;;;;15.37;10.50;;;7.80;63.00;;;;;;5053036;28;20077;-77
2023/04/05 08:35:02;;;;;;;19.30;10.40;;;8.50;62.50;;;;;;5064135;28;20031;-77
2023/04/05 08:37:27;;;;;;;13.57;9.20;;;8.60;61.50;;;;;;5047027;28;20496;-76
2023/04/05 08:39:53;;;;;;;14.53;10.33;;;8.50;61.40;;;;;;5081000;28;20532;-77
2023/04/05 08:42:51;;;;;;;14.67;10.10;;;8.30;61.20;;;;;;5074985;28;20397;-76
2023/04/05 08:45:19;;;;;;;17.10;10.23;;;8.40;59.10;;;;;;5078280;28;20059;-76
2023/04/05 08:47:46;;;;;;;12.83;9.00;;;8.60;60.70;;;;;;5083477;28;20097;-77
2023/04/05 08:50:13;;;;;;;13.03;8.23;;;9.20;60.50;;;;;;5085707;28;20047;-77
2023/04/05 08:52:41;;;;;;;11.27;8.23;;;9.40;59.10;;;;;;5047073;28;20412;-76
2023/04/05 08:55:08;;;;;;;14.60;8.57;;;9.10;58.90;;;;;;5068810;28;20100;-77
2023/04/05 08:57:38;;;;;;;13.90;8.00;;;9.00;58.90;;;;;;5048628;28;20047;-77
2023/04/05 09:00:06;;;;;;;11.17;7.63;;;9.00;59.20;;;;;;5082292;28;20134;-77
2023/04/05 09:02:33;;;;;;;14.47;8.07;;;9.20;58.90;;;;;;5074881;28;20143;-77
2023/04/05 09:05:01;;;;;;;11.90;8.30;;;9.20;59.00;;;;;;5063317;28;20067;-76
2023/04/05 09:07:30;;;;;;;11.50;7.10;;;9.20;58.80;;;;;;5062811;28;20050;-76
2023/04/05 09:09:59;;;;;;;11.20;6.43;;;9.00;58.60;;;;;;5098416;28;20078;-77
2023/04/05 09:12:25;;;;;;;9.33;7.23;;;8.90;57.70;;;;;;5080230;28;20043;-76
2023/04/05 09:14:51;;;;;;;10.27;6.73;;;8.70;58.10;;;;;;5049446;28;20104;-77
2023/04/05 09:17:18;;;;;;;15.30;9.63;;;8.60;58.10;;;;;;5069755;27;20057;-76
2023/04/05 09:19:44;;;;;;;12.10;7.57;;;8.20;57.80;;;;;;5090466;28;20052;-77
2023/04/05 09:22:10;;;;;;;10.67;7.57;;;8.10;58.20;;;;;;5079659;28;20450;-76
2023/04/05 09:24:41;;;;;;;10.90;6.90;;;8.40;58.50;;;;;;5081105;28;20054;-77
2023/04/05 09:27:14;;;;;;;8.52;6.45;;;8.60;58.30;;;;;;5052385;28;20062;-76
2023/04/05 09:29:42;;;;;;;10.60;5.90;;;8.70;57.30;;;;;;5067951;28;20059;-76
2023/04/05 09:32:09;;;;;;;11.13;6.80;;;8.60;57.00;;;;;;5059902;28;20047;-77
2023/04/05 09:34:36;;;;;;;11.27;6.40;;;8.60;57.50;;;;;;5038232;28;20054;-77
2023/04/05 09:37:12;;;;;;;9.70;5.33;;;8.70;57.90;;;;;;5084026;28;20062;-77
2023/04/05 09:39:37;;;;;;;9.63;5.73;;;8.60;56.90;;;;;;5063050;28;20042;-76
2023/04/05 09:42:11;;;;;;;8.77;5.67;;;8.60;56.90;;;;;;5062225;28;20051;-76
2023/04/05 09:44:56;;;;;;;11.27;5.83;;;8.60;57.20;;;;;;5082226;28;20035;-76
2023/04/05 09:47:29;;;;;;;8.83;5.13;;;8.60;56.40;;;;;;5061877;28;20055;-77
2023/04/05 09:49:56;;;;;;;8.30;5.23;;;8.60;55.90;;;;;;5053117;28;20097;-76
2023/04/05 09:52:24;;;;;;;8.33;5.20;;;8.50;55.80;;;;;;5064371;28;20488;-76
2023/04/05 09:54:53;;;;;;;10.43;5.03;;;8.40;55.60;;;;;;5064339;28;20051;-76
2023/04/05 09:57:18;;;;;;;6.97;4.50;;;8.20;55.20;;;;;;5044461;28;20055;-76
2023/04/05 09:59:46;;;;;;;9.17;4.87;;;8.30;55.10;;;;;;5064147;28;20040;-76
2023/04/05 10:02:12;;;;;;;10.03;5.10;;;8.50;55.60;;;;;;5063286;28;20044;-76
2023/04/05 10:04:43;;;;;;;7.30;4.57;;;8.60;55.30;;;;;;5079982;28;20054;-76
2023/04/05 10:07:12;;;;;;;10.98;5.05;;;8.70;55.00;;;;;;5064521;28;20123;-76
2023/04/05 10:09:42;;;;;;;9.77;5.43;;;8.90;54.40;;;;;;5080026;28;20255;-76
2023/04/05 10:12:09;;;;;;;11.17;5.43;;;9.40;54.40;;;;;;5088859;28;20040;-76
2023/04/05 10:14:38;;;;;;;6.93;4.40;;;9.90;53.00;;;;;;5098328;28;20130;-76
2023/04/05 10:17:22;;;;;;;7.90;5.20;;;10.50;52.90;;;;;;5064270;28;20051;-76
2023/04/05 10:20:07;;;;;;;10.80;5.53;;;10.70;53.20;;;;;;5080079;28;20465;-77
2023/04/05 10:22:39;;;;;;;8.50;4.70;;;10.70;51.60;;;;;;5068018;28;20084;-77
2023/04/05 10:25:29;;;;;;;8.77;5.33;;;10.80;53.00;;;;;;5081747;28;20052;-77
2023/04/05 10:28:05;;;;;;;11.27;5.30;;;11.00;51.60;;;;;;5069924;28;20170;-76
2023/04/05 10:30:54;;;;;;;11.00;5.17;;;11.70;51.80;;;;;;5081062;28;20047;-77
2023/04/05 10:33:33;;;;;;;9.97;5.63;;;12.40;49.00;;;;;;5062334;28;20051;-77
2023/04/05 10:36:26;;;;;;;9.23;5.40;;;12.50;50.80;;;;;;5078720;28;20504;-77
2023/04/05 10:39:00;;;;;;;8.15;5.20;;;12.10;51.00;;;;;;5093977;28;20065;-77
2023/04/05 10:41:28;;;;;;;9.13;5.15;;;11.90;51.60;;;;;;5077660;28;20043;-77
2023/04/05 10:43:56;;;;;;;8.40;5.90;;;11.80;50.50;;;;;;5077654;28;20109;-77
2023/04/05 10:46:23;;;;;;;10.68;6.10;;;11.70;50.80;;;;;;5064140;28;20058;-76
2023/04/05 10:49:18;;;;;;;9.88;5.15;;;11.60;50.80;;;;;;5090548;28;20622;-77
2023/04/05 10:51:44;;;;;;;8.00;4.70;;;11.40;50.40;;;;;;5080999;28;20051;-76
2023/04/05 10:54:10;;;;;;;10.40;6.10;;;11.10;50.90;;;;;;5058957;28;20052;-76
2023/04/05 10:56:37;;;;;;;8.60;5.43;;;11.00;51.50;;;;;;5032560;28;20116;-76
2023/04/05 10:59:04;;;;;;;8.10;5.33;;;11.30;51.10;;;;;;5059603;28;20569;-77
2023/04/05 11:01:30;;;;;;;10.82;5.50;;;11.70;50.40;;;;;;5058752;28;21164;-77
2023/04/05 11:04:19;;;;;;;7.72;4.43;;;12.40;50.10;;;;;;5060676;28;20055;-77
2023/04/05 11:06:47;;;;;;;7.78;5.07;;;12.80;48.70;;;;;;5048190;28;20044;-76
2023/04/05 11:09:21;;;;;;;8.95;4.93;;;12.70;49.60;;;;;;5077313;28;20080;-77
2023/04/05 11:11:50;;;;;;;7.05;4.60;;;12.70;49.60;;;;;;5061267;28;20136;-77
2023/04/05 11:14:18;;;;;;;6.03;4.65;;;12.50;49.70;;;;;;5084040;28;20062;-77
2023/04/05 11:16:47;;;;;;;11.55;6.57;;;12.10;49.70;;;;;;5066377;28;20047;-76
2023/04/05 11:19:16;;;;;;;6.60;4.90;;;11.70;49.80;;;;;;5095544;28;20063;-77
2023/04/05 11:21:43;;;;;;;10.27;4.88;;;11.70;49.60;;;;;;5083503;28;20165;-76
2023/04/05 11:24:13;;;;;;;8.32;5.35;;;11.40;49.40;;;;;;5077296;28;20056;-77
2023/04/05 11:26:39;;;;;;;8.00;5.28;;;11.40;49.60;;;;;;5074430;28;20082;-77
2023/04/05 11:29:05;;;;;;;8.75;5.32;;;11.70;50.00;;;;;;5093488;28;20454;-77
2023/04/05 11:31:30;;;;;;;8.27;4.93;;;12.30;49.70;;;;;;5080314;28;20108;-77
2023/04/05 11:33:58;;;;;;;7.72;4.72;;;12.70;49.50;;;;;;5095372;28;20165;-77
2023/04/05 11:36:32;;;;;;;5.63;4.50;;;13.40;49.20;;;;;;5060917;28;20489;-77
2023/04/05 11:39:16;;;;;;;8.50;5.05;;;13.70;48.20;;;;;;5092902;28;20180;-77
2023/04/05 11:41:47;;;;;;;6.82;4.50;;;13.90;46.70;;;;;;5081882;28;20093;-77
2023/04/05 11:44:16;;;;;;;6.80;4.53;;;14.00;48.10;;;;;;5094913;28;20151;-77
2023/04/05 11:46:42;;;;;;;8.15;5.45;;;13.70;47.60;;;;;;5043512;28;20079;-76
2023/04/05 11:49:08;;;;;;;8.18;4.72;;;13.40;48.40;;;;;;5056746;28;20395;-77
2023/04/05 11:51:34;;;;;;;6.07;4.72;;;13.30;48.30;;;;;;5077973;28;20052;-77
2023/04/05 11:54:00;;;;;;;7.35;4.72;;;13.00;48.20;;;;;;5093656;28;20062;-76
2023/04/05 11:56:25;;;;;;;6.63;4.80;;;12.60;48.50;;;;;;5083253;28;20551;-76
2023/04/05 11:58:51;;;;;;;10.10;7.40;;;12.50;48.60;;;;;;5074257;28;20050;-77
2023/04/05 12:01:17;;;;;;;12.23;6.68;;;12.70;48.80;;;;;;5058733;28;20058;-76
2023/04/05 12:03:53;;;;;;;10.82;7.32;;;12.90;47.90;;;;;;5073006;28;20044;-77
2023/04/05 12:06:22;;;;;;;8.45;5.15;;;13.00;47.00;;;;;;5049529;28;20059;-76
2023/04/05 12:08:51;;;;;;;9.05;4.75;;;13.30;48.00;;;;;;5072767;28;20069;-77
2023/04/05 12:11:31;;;;;;;6.93;4.22;;;13.30;47.60;;;;;;5062421;28;20052;-77
2023/04/05 12:13:58;;;;;;;6.03;5.10;;;12.90;46.90;;;;;;5060983;28;20047;-76
2023/04/05 12:16:25;;;;;;;8.25;4.85;;;12.60;48.40;;;;;;5065728;28;21244;-76
2023/04/05 12:18:55;;;;;;;8.20;5.35;;;12.30;48.50;;;;;;5069333;28;20085;-77
2023/04/05 12:21:22;;;;;;;7.72;4.90;;;12.20;48.60;;;;;;5076374;28;20055;-76
2023/04/05 12:23:49;;;;;;;13.02;5.60;;;12.20;48.20;;;;;;5075218;28;20044;-77
2023/04/05 12:26:15;;;;;;;7.65;4.90;;;12.20;48.60;;;;;;5070577;28;20409;-76
2023/04/05 12:28:57;;;;;;;8.18;5.45;;;12.00;49.10;;;;;;5040688;28;20040;-76
2023/04/05 12:31:43;;;;;;;8.73;5.15;;;12.20;48.20;;;;;;5062675;28;20048;-76
2023/04/05 12:34:11;;;;;;;9.93;5.22;;;12.50;48.20;;;;;;5057311;28;20051;-76
2023/04/05 12:36:37;;;;;;;9.73;5.18;;;12.50;49.10;;;;;;5048162;28;20063;-76
2023/04/05 12:39:08;;;;;;;8.18;5.03;;;12.50;48.40;;;;;;5082371;28;20059;-76
2023/04/05 12:41:35;;;;;;;8.77;4.50;;;12.80;48.10;;;;;;5068769;28;20044;-77
2023/04/05 12:44:10;;;;;;;4.93;4.20;;;13.00;47.60;;;;;;5086966;28;20565;-76
2023/04/05 12:46:44;;;;;;;6.63;4.63;;;13.10;47.30;;;;;;5069445;28;20063;-77
2023/04/05 12:49:15;;;;;;;8.20;4.40;;;13.00;47.50;;;;;;5084552;28;20542;-77